sensor_id;sensor_type;location;lat;lon;timestamp;temperature;humidity
21493;DHT22;10908;50.690;4.400;2023-10-09T00:02:06;16.80;84.30
21493;DHT22;10908;50.690;4.400;2023-10-09T00:04:36;16.80;84.30
21493;DHT22;10908;50.690;4.400;2023-10-09T00:07:05;16.80;84.40
21493;DHT22;10908;50.690;4.400;2023-10-09T00:09:34;16.80;84.40
21493;DHT22;10908;50.690;4.400;2023-10-09T00:12:20;16.90;84.40
21493;DHT22;10908;50.690;4.400;2023-10-09T00:14:51;16.90;84.40
21493;DHT22;10908;50.690;4.400;2023-10-09T00:17:20;16.90;84.20
21493;DHT22;10908;50.690;4.400;2023-10-09T00:19:49;16.90;84.10
21493;DHT22;10908;50.690;4.400;2023-10-09T00:22:17;16.80;84.30
21493;DHT22;10908;50.690;4.400;2023-10-09T00:24:52;16.90;84.40
21493;DHT22;10908;50.690;4.400;2023-10-09T00:27:37;16.90;84.40
21493;DHT22;10908;50.690;4.400;2023-10-09T00:30:02;16.90;84.50
21493;DHT22;10908;50.690;4.400;2023-10-09T00:32:31;16.90;84.40
21493;DHT22;10908;50.690;4.400;2023-10-09T00:34:58;16.90;84.40
21493;DHT22;10908;50.690;4.400;2023-10-09T00:37:44;17.00;84.10
21493;DHT22;10908;50.690;4.400;2023-10-09T00:40:10;16.90;84.00
21493;DHT22;10908;50.690;4.400;2023-10-09T00:42:46;16.90;84.20
21493;DHT22;10908;50.690;4.400;2023-10-09T00:45:14;16.90;84.20
21493;DHT22;10908;50.690;4.400;2023-10-09T00:47:51;16.90;84.20
21493;DHT22;10908;50.690;4.400;2023-10-09T00:50:17;16.90;84.20
21493;DHT22;10908;50.690;4.400;2023-10-09T00:52:49;16.90;84.30
21493;DHT22;10908;50.690;4.400;2023-10-09T00:55:18;16.90;84.40
21493;DHT22;10908;50.690;4.400;2023-10-09T00:57:52;17.00;84.20
21493;DHT22;10908;50.690;4.400;2023-10-09T01:00:25;17.00;83.90
21493;DHT22;10908;50.690;4.400;2023-10-09T01:03:01;17.00;84.10
21493;DHT22;10908;50.690;4.400;2023-10-09T01:06:02;17.10;84.00
21493;DHT22;10908;50.690;4.400;2023-10-09T01:08:34;16.90;84.00
21493;DHT22;10908;50.690;4.400;2023-10-09T01:11:16;16.90;83.90
21493;DHT22;10908;50.690;4.400;2023-10-09T01:13:46;17.00;83.80
21493;DHT22;10908;50.690;4.400;2023-10-09T01:16:24;17.00;83.80
21493;DHT22;10908;50.690;4.400;2023-10-09T01:18:52;17.10;83.50
21493;DHT22;10908;50.690;4.400;2023-10-09T01:21:19;17.10;83.40
21493;DHT22;10908;50.690;4.400;2023-10-09T01:23:53;17.10;83.40
21493;DHT22;10908;50.690;4.400;2023-10-09T01:26:31;17.10;83.60
21493;DHT22;10908;50.690;4.400;2023-10-09T01:29:05;16.90;83.60
21493;DHT22;10908;50.690;4.400;2023-10-09T01:31:36;16.80;83.90
21493;DHT22;10908;50.690;4.400;2023-10-09T01:34:09;16.90;84.00
21493;DHT22;10908;50.690;4.400;2023-10-09T01:36:41;16.80;84.10
21493;DHT22;10908;50.690;4.400;2023-10-09T01:39:07;16.80;84.10
21493;DHT22;10908;50.690;4.400;2023-10-09T01:41:54;16.80;84.10
21493;DHT22;10908;50.690;4.400;2023-10-09T01:44:32;16.80;84.00
21493;DHT22;10908;50.690;4.400;2023-10-09T01:47:04;16.90;83.90
21493;DHT22;10908;50.690;4.400;2023-10-09T01:49:36;16.90;83.80
21493;DHT22;10908;50.690;4.400;2023-10-09T01:52:07;16.90;83.80
21493;DHT22;10908;50.690;4.400;2023-10-09T01:54:39;16.90;83.60
21493;DHT22;10908;50.690;4.400;2023-10-09T01:57:10;16.80;83.70
21493;DHT22;10908;50.690;4.400;2023-10-09T01:59:39;16.80;83.80
21493;DHT22;10908;50.690;4.400;2023-10-09T02:02:22;16.80;83.70
21493;DHT22;10908;50.690;4.400;2023-10-09T02:05:02;16.80;83.70
21493;DHT22;10908;50.690;4.400;2023-10-09T02:07:40;16.90;83.70
21493;DHT22;10908;50.690;4.400;2023-10-09T02:10:07;16.90;83.30
21493;DHT22;10908;50.690;4.400;2023-10-09T02:12:53;16.80;83.30
21493;DHT22;10908;50.690;4.400;2023-10-09T02:15:40;16.70;83.50
21493;DHT22;10908;50.690;4.400;2023-10-09T02:18:09;16.60;83.70
21493;DHT22;10908;50.690;4.400;2023-10-09T02:21:06;16.50;84.10
21493;DHT22;10908;50.690;4.400;2023-10-09T02:23:33;16.50;84.30
21493;DHT22;10908;50.690;4.400;2023-10-09T02:26:09;16.40;84.50
21493;DHT22;10908;50.690;4.400;2023-10-09T02:28:35;16.30;84.80
21493;DHT22;10908;50.690;4.400;2023-10-09T02:31:09;16.30;85.00
21493;DHT22;10908;50.690;4.400;2023-10-09T02:33:36;16.30;85.00
21493;DHT22;10908;50.690;4.400;2023-10-09T02:36:13;16.40;84.70
21493;DHT22;10908;50.690;4.400;2023-10-09T02:38:39;16.40;84.50
21493;DHT22;10908;50.690;4.400;2023-10-09T02:41:08;16.40;84.30
21493;DHT22;10908;50.690;4.400;2023-10-09T02:43:37;16.50;84.10
21493;DHT22;10908;50.690;4.400;2023-10-09T02:46:13;16.50;83.70
21493;DHT22;10908;50.690;4.400;2023-10-09T02:48:43;16.50;83.30
21493;DHT22;10908;50.690;4.400;2023-10-09T02:51:17;16.50;83.30
21493;DHT22;10908;50.690;4.400;2023-10-09T02:53:59;16.50;83.30
21493;DHT22;10908;50.690;4.400;2023-10-09T02:56:32;16.50;83.30
21493;DHT22;10908;50.690;4.400;2023-10-09T02:59:09;16.40;83.30
21493;DHT22;10908;50.690;4.400;2023-10-09T03:01:38;16.60;83.00
21493;DHT22;10908;50.690;4.400;2023-10-09T03:04:04;16.60;82.70
21493;DHT22;10908;50.690;4.400;2023-10-09T03:06:32;16.60;82.50
21493;DHT22;10908;50.690;4.400;2023-10-09T03:09:00;16.60;82.40
21493;DHT22;10908;50.690;4.400;2023-10-09T03:11:26;16.70;82.40
21493;DHT22;10908;50.690;4.400;2023-10-09T03:13:52;16.70;82.10
21493;DHT22;10908;50.690;4.400;2023-10-09T03:16:18;16.60;82.40
21493;DHT22;10908;50.690;4.400;2023-10-09T03:18:50;16.60;82.40
21493;DHT22;10908;50.690;4.400;2023-10-09T03:21:16;16.80;81.80
21493;DHT22;10908;50.690;4.400;2023-10-09T03:23:45;16.70;81.60
21493;DHT22;10908;50.690;4.400;2023-10-09T03:26:17;16.80;81.60
21493;DHT22;10908;50.690;4.400;2023-10-09T03:28:44;16.70;81.50
21493;DHT22;10908;50.690;4.400;2023-10-09T03:31:11;16.60;81.80
21493;DHT22;10908;50.690;4.400;2023-10-09T03:33:37;16.50;82.10
21493;DHT22;10908;50.690;4.400;2023-10-09T03:36:03;16.50;82.20
21493;DHT22;10908;50.690;4.400;2023-10-09T03:38:33;16.50;82.20
21493;DHT22;10908;50.690;4.400;2023-10-09T03:41:04;16.50;81.90
21493;DHT22;10908;50.690;4.400;2023-10-09T03:43:36;16.30;82.20
21493;DHT22;10908;50.690;4.400;2023-10-09T03:46:08;16.30;82.50
21493;DHT22;10908;50.690;4.400;2023-10-09T03:48:50;16.20;82.60
21493;DHT22;10908;50.690;4.400;2023-10-09T03:51:22;16.10;82.70
21493;DHT22;10908;50.690;4.400;2023-10-09T03:53:48;16.10;82.90
21493;DHT22;10908;50.690;4.400;2023-10-09T03:56:15;15.90;83.20
21493;DHT22;10908;50.690;4.400;2023-10-09T03:58:45;15.90;83.50
21493;DHT22;10908;50.690;4.400;2023-10-09T04:01:13;15.90;83.50
21493;DHT22;10908;50.690;4.400;2023-10-09T04:03:44;15.90;83.30
21493;DHT22;10908;50.690;4.400;2023-10-09T04:06:10;15.90;83.30
21493;DHT22;10908;50.690;4.400;2023-10-09T04:08:36;15.90;83.40
21493;DHT22;10908;50.690;4.400;2023-10-09T04:11:05;15.80;83.60
21493;DHT22;10908;50.690;4.400;2023-10-09T04:13:45;15.80;83.60
21493;DHT22;10908;50.690;4.400;2023-10-09T04:16:15;15.80;83.60
21493;DHT22;10908;50.690;4.400;2023-10-09T04:18:59;15.90;83.50
21493;DHT22;10908;50.690;4.400;2023-10-09T04:21:31;15.80;83.40
21493;DHT22;10908;50.690;4.400;2023-10-09T04:24:07;15.80;83.40
21493;DHT22;10908;50.690;4.400;2023-10-09T04:26:43;16.10;82.90
21493;DHT22;10908;50.690;4.400;2023-10-09T04:29:16;16.10;82.50
21493;DHT22;10908;50.690;4.400;2023-10-09T04:31:55;16.20;82.40
21493;DHT22;10908;50.690;4.400;2023-10-09T04:34:25;16.10;82.20
21493;DHT22;10908;50.690;4.400;2023-10-09T04:36:57;16.20;82.00
21493;DHT22;10908;50.690;4.400;2023-10-09T04:39:29;16.30;82.00
21493;DHT22;10908;50.690;4.400;2023-10-09T04:41:55;16.20;81.80
21493;DHT22;10908;50.690;4.400;2023-10-09T04:44:43;16.10;81.90
21493;DHT22;10908;50.690;4.400;2023-10-09T04:47:28;16.10;82.10
21493;DHT22;10908;50.690;4.400;2023-10-09T04:50:23;16.10;82.20
21493;DHT22;10908;50.690;4.400;2023-10-09T04:52:55;16.10;82.20
21493;DHT22;10908;50.690;4.400;2023-10-09T04:55:21;16.10;82.20
21493;DHT22;10908;50.690;4.400;2023-10-09T04:57:50;16.00;82.30
21493;DHT22;10908;50.690;4.400;2023-10-09T05:00:34;16.10;82.30
21493;DHT22;10908;50.690;4.400;2023-10-09T05:03:01;16.10;82.00
21493;DHT22;10908;50.690;4.400;2023-10-09T05:05:38;16.10;82.00
21493;DHT22;10908;50.690;4.400;2023-10-09T05:10:49;16.10;81.90
21493;DHT22;10908;50.690;4.400;2023-10-09T05:13:34;16.20;81.80
21493;DHT22;10908;50.690;4.400;2023-10-09T05:16:25;16.30;81.70
21493;DHT22;10908;50.690;4.400;2023-10-09T05:18:51;16.20;81.50
21493;DHT22;10908;50.690;4.400;2023-10-09T05:21:35;16.20;81.60
21493;DHT22;10908;50.690;4.400;2023-10-09T05:24:02;16.30;81.60
21493;DHT22;10908;50.690;4.400;2023-10-09T05:26:44;16.20;81.60
21493;DHT22;10908;50.690;4.400;2023-10-09T05:29:14;16.30;81.50
21493;DHT22;10908;50.690;4.400;2023-10-09T05:32:04;16.10;81.70
21493;DHT22;10908;50.690;4.400;2023-10-09T05:34:34;16.10;81.90
21493;DHT22;10908;50.690;4.400;2023-10-09T05:37:06;16.10;82.10
21493;DHT22;10908;50.690;4.400;2023-10-09T05:39:54;16.00;82.20
21493;DHT22;10908;50.690;4.400;2023-10-09T05:42:45;16.10;82.10
21493;DHT22;10908;50.690;4.400;2023-10-09T05:45:15;16.10;81.90
21493;DHT22;10908;50.690;4.400;2023-10-09T05:47:59;16.10;81.90
21493;DHT22;10908;50.690;4.400;2023-10-09T05:50:48;16.10;82.00
21493;DHT22;10908;50.690;4.400;2023-10-09T05:53:32;16.10;81.90
21493;DHT22;10908;50.690;4.400;2023-10-09T05:56:11;16.10;81.90
21493;DHT22;10908;50.690;4.400;2023-10-09T05:58:55;16.00;81.90
21493;DHT22;10908;50.690;4.400;2023-10-09T06:01:39;16.00;81.90
21493;DHT22;10908;50.690;4.400;2023-10-09T06:04:23;16.00;81.90
21493;DHT22;10908;50.690;4.400;2023-10-09T06:07:09;16.10;81.90
21493;DHT22;10908;50.690;4.400;2023-10-09T06:09:39;16.00;82.00
21493;DHT22;10908;50.690;4.400;2023-10-09T06:12:21;16.10;81.80
21493;DHT22;10908;50.690;4.400;2023-10-09T06:15:02;16.10;81.80
21493;DHT22;10908;50.690;4.400;2023-10-09T06:17:46;16.10;81.70
21493;DHT22;10908;50.690;4.400;2023-10-09T06:20:18;16.10;81.80
21493;DHT22;10908;50.690;4.400;2023-10-09T06:23:02;16.20;81.90
21493;DHT22;10908;50.690;4.400;2023-10-09T06:25:49;16.10;81.80
21493;DHT22;10908;50.690;4.400;2023-10-09T06:28:18;16.10;81.80
21493;DHT22;10908;50.690;4.400;2023-10-09T06:30:45;16.10;82.00
21493;DHT22;10908;50.690;4.400;2023-10-09T06:33:12;16.10;82.00
21493;DHT22;10908;50.690;4.400;2023-10-09T06:35:46;16.10;81.90
21493;DHT22;10908;50.690;4.400;2023-10-09T06:38:19;16.10;82.10
21493;DHT22;10908;50.690;4.400;2023-10-09T06:40:48;16.20;82.00
21493;DHT22;10908;50.690;4.400;2023-10-09T06:43:18;16.20;81.90
21493;DHT22;10908;50.690;4.400;2023-10-09T06:45:54;16.20;81.90
21493;DHT22;10908;50.690;4.400;2023-10-09T06:48:24;16.20;81.80
21493;DHT22;10908;50.690;4.400;2023-10-09T06:51:17;16.10;81.80
21493;DHT22;10908;50.690;4.400;2023-10-09T06:53:52;16.10;81.80
21493;DHT22;10908;50.690;4.400;2023-10-09T06:56:21;16.10;82.00
21493;DHT22;10908;50.690;4.400;2023-10-09T06:58:51;16.20;81.90
21493;DHT22;10908;50.690;4.400;2023-10-09T07:01:21;16.20;81.90
21493;DHT22;10908;50.690;4.400;2023-10-09T07:04:14;16.10;81.90
21493;DHT22;10908;50.690;4.400;2023-10-09T07:06:58;16.10;82.10
21493;DHT22;10908;50.690;4.400;2023-10-09T07:09:24;16.20;82.00
21493;DHT22;10908;50.690;4.400;2023-10-09T07:12:10;16.20;82.00
21493;DHT22;10908;50.690;4.400;2023-10-09T07:14:39;16.20;82.30
21493;DHT22;10908;50.690;4.400;2023-10-09T07:17:06;16.40;82.10
21493;DHT22;10908;50.690;4.400;2023-10-09T07:19:42;16.40;81.70
21493;DHT22;10908;50.690;4.400;2023-10-09T07:22:09;16.40;81.80
21493;DHT22;10908;50.690;4.400;2023-10-09T07:27:26;16.60;81.50
21493;DHT22;10908;50.690;4.400;2023-10-09T07:30:20;16.70;81.20
21493;DHT22;10908;50.690;4.400;2023-10-09T07:33:00;16.70;81.20
21493;DHT22;10908;50.690;4.400;2023-10-09T07:35:41;16.80;80.90
21493;DHT22;10908;50.690;4.400;2023-10-09T07:38:18;16.80;80.90
21493;DHT22;10908;50.690;4.400;2023-10-09T07:40:50;16.70;80.90
21493;DHT22;10908;50.690;4.400;2023-10-09T07:43:29;16.70;80.90
21493;DHT22;10908;50.690;4.400;2023-10-09T07:46:05;16.70;80.90
21493;DHT22;10908;50.690;4.400;2023-10-09T07:48:50;16.70;81.00
21493;DHT22;10908;50.690;4.400;2023-10-09T07:51:23;16.80;80.90
21493;DHT22;10908;50.690;4.400;2023-10-09T07:53:52;16.80;80.80
21493;DHT22;10908;50.690;4.400;2023-10-09T07:56:33;16.80;80.80
21493;DHT22;10908;50.690;4.400;2023-10-09T07:59:10;16.90;80.50
21493;DHT22;10908;50.690;4.400;2023-10-09T08:01:44;17.00;80.30
21493;DHT22;10908;50.690;4.400;2023-10-09T08:04:23;17.10;79.70
21493;DHT22;10908;50.690;4.400;2023-10-09T08:07:08;17.40;80.30
21493;DHT22;10908;50.690;4.400;2023-10-09T08:09:35;17.50;79.40
21493;DHT22;10908;50.690;4.400;2023-10-09T08:12:15;17.60;78.90
21493;DHT22;10908;50.690;4.400;2023-10-09T08:15:00;17.80;78.80
21493;DHT22;10908;50.690;4.400;2023-10-09T08:20:22;17.90;77.70
21493;DHT22;10908;50.690;4.400;2023-10-09T08:22:54;17.90;77.40
21493;DHT22;10908;50.690;4.400;2023-10-09T08:25:24;17.80;77.40
21493;DHT22;10908;50.690;4.400;2023-10-09T08:27:58;17.90;77.50
21493;DHT22;10908;50.690;4.400;2023-10-09T08:30:44;17.90;77.20
21493;DHT22;10908;50.690;4.400;2023-10-09T08:33:20;17.90;77.50
21493;DHT22;10908;50.690;4.400;2023-10-09T08:35:56;17.90;77.10
21493;DHT22;10908;50.690;4.400;2023-10-09T08:38:30;17.90;77.10
21493;DHT22;10908;50.690;4.400;2023-10-09T08:41:10;18.00;76.90
21493;DHT22;10908;50.690;4.400;2023-10-09T08:43:54;18.10;76.90
21493;DHT22;10908;50.690;4.400;2023-10-09T08:46:28;18.00;76.70
21493;DHT22;10908;50.690;4.400;2023-10-09T08:48:55;18.10;76.80
21493;DHT22;10908;50.690;4.400;2023-10-09T08:51:24;18.10;76.50
21493;DHT22;10908;50.690;4.400;2023-10-09T08:53:51;18.20;76.30
21493;DHT22;10908;50.690;4.400;2023-10-09T08:56:18;18.20;76.20
21493;DHT22;10908;50.690;4.400;2023-10-09T08:58:52;18.20;76.40
21493;DHT22;10908;50.690;4.400;2023-10-09T09:01:19;18.30;75.90
21493;DHT22;10908;50.690;4.400;2023-10-09T09:03:48;18.30;75.90
21493;DHT22;10908;50.690;4.400;2023-10-09T09:06:14;18.20;76.50
21493;DHT22;10908;50.690;4.400;2023-10-09T09:08:40;18.30;76.50
21493;DHT22;10908;50.690;4.400;2023-10-09T09:11:10;18.30;76.30
21493;DHT22;10908;50.690;4.400;2023-10-09T09:13:47;18.40;76.30
21493;DHT22;10908;50.690;4.400;2023-10-09T09:16:17;18.40;75.90
21493;DHT22;10908;50.690;4.400;2023-10-09T09:18:55;18.40;75.70
21493;DHT22;10908;50.690;4.400;2023-10-09T09:21:38;18.50;75.40
21493;DHT22;10908;50.690;4.400;2023-10-09T09:24:05;18.50;75.30
21493;DHT22;10908;50.690;4.400;2023-10-09T09:26:55;18.60;75.80
21493;DHT22;10908;50.690;4.400;2023-10-09T09:32:08;18.50;75.40
21493;DHT22;10908;50.690;4.400;2023-10-09T09:34:51;18.50;75.20
21493;DHT22;10908;50.690;4.400;2023-10-09T09:37:24;18.60;75.50
21493;DHT22;10908;50.690;4.400;2023-10-09T09:40:16;18.50;74.90
21493;DHT22;10908;50.690;4.400;2023-10-09T09:42:59;18.70;74.90
21493;DHT22;10908;50.690;4.400;2023-10-09T09:45:36;18.80;74.30
21493;DHT22;10908;50.690;4.400;2023-10-09T09:48:02;18.90;74.50
21493;DHT22;10908;50.690;4.400;2023-10-09T09:50:34;18.90;75.30
21493;DHT22;10908;50.690;4.400;2023-10-09T09:53:04;19.00;74.00
21493;DHT22;10908;50.690;4.400;2023-10-09T09:55:34;19.20;75.10
21493;DHT22;10908;50.690;4.400;2023-10-09T09:58:08;19.30;73.30
21493;DHT22;10908;50.690;4.400;2023-10-09T10:00:44;19.20;73.30
21493;DHT22;10908;50.690;4.400;2023-10-09T10:03:38;19.20;73.00
21493;DHT22;10908;50.690;4.400;2023-10-09T10:06:09;19.20;72.50
21493;DHT22;10908;50.690;4.400;2023-10-09T10:08:38;19.30;73.30
21493;DHT22;10908;50.690;4.400;2023-10-09T10:11:07;19.20;73.50
21493;DHT22;10908;50.690;4.400;2023-10-09T10:16:12;19.30;72.90
21493;DHT22;10908;50.690;4.400;2023-10-09T10:19:11;19.40;72.50
21493;DHT22;10908;50.690;4.400;2023-10-09T10:21:43;19.40;71.80
21493;DHT22;10908;50.690;4.400;2023-10-09T10:27:16;19.40;72.20
21493;DHT22;10908;50.690;4.400;2023-10-09T10:30:27;19.50;72.10
21493;DHT22;10908;50.690;4.400;2023-10-09T10:33:00;19.50;72.00
21493;DHT22;10908;50.690;4.400;2023-10-09T10:35:35;19.40;71.90
21493;DHT22;10908;50.690;4.400;2023-10-09T10:41:10;19.60;71.80
21493;DHT22;10908;50.690;4.400;2023-10-09T10:43:45;19.70;72.50
21493;DHT22;10908;50.690;4.400;2023-10-09T10:46:14;19.80;72.10
21493;DHT22;10908;50.690;4.400;2023-10-09T10:48:41;19.80;71.00
21493;DHT22;10908;50.690;4.400;2023-10-09T10:51:15;19.80;71.40
21493;DHT22;10908;50.690;4.400;2023-10-09T10:53:51;19.90;72.00
21493;DHT22;10908;50.690;4.400;2023-10-09T10:56:18;20.00;71.20
21493;DHT22;10908;50.690;4.400;2023-10-09T10:58:54;20.00;70.70
21493;DHT22;10908;50.690;4.400;2023-10-09T11:01:40;20.00;71.40
21493;DHT22;10908;50.690;4.400;2023-10-09T11:04:25;20.10;71.10
21493;DHT22;10908;50.690;4.400;2023-10-09T11:07:04;20.30;70.80
21493;DHT22;10908;50.690;4.400;2023-10-09T11:09:57;20.50;70.70
21493;DHT22;10908;50.690;4.400;2023-10-09T11:12:24;20.50;70.40
21493;DHT22;10908;50.690;4.400;2023-10-09T11:14:50;20.50;70.60
21493;DHT22;10908;50.690;4.400;2023-10-09T11:17:35;20.50;70.10
21493;DHT22;10908;50.690;4.400;2023-10-09T11:20:06;20.60;69.20
21493;DHT22;10908;50.690;4.400;2023-10-09T11:22:52;20.60;69.30
21493;DHT22;10908;50.690;4.400;2023-10-09T11:25:50;20.60;68.60
21493;DHT22;10908;50.690;4.400;2023-10-09T11:28:20;20.70;68.50
21493;DHT22;10908;50.690;4.400;2023-10-09T11:31:11;20.60;68.60
21493;DHT22;10908;50.690;4.400;2023-10-09T11:33:48;20.80;69.20
21493;DHT22;10908;50.690;4.400;2023-10-09T11:36:18;20.80;69.00
21493;DHT22;10908;50.690;4.400;2023-10-09T11:39:00;20.80;68.30
21493;DHT22;10908;50.690;4.400;2023-10-09T11:41:47;20.80;67.80
21493;DHT22;10908;50.690;4.400;2023-10-09T11:44:15;20.70;68.60
21493;DHT22;10908;50.690;4.400;2023-10-09T11:46:59;20.60;68.10
21493;DHT22;10908;50.690;4.400;2023-10-09T11:49:58;20.80;68.30
21493;DHT22;10908;50.690;4.400;2023-10-09T11:52:24;20.80;68.40
21493;DHT22;10908;50.690;4.400;2023-10-09T11:55:07;20.80;68.20
21493;DHT22;10908;50.690;4.400;2023-10-09T11:57:33;20.90;68.80
21493;DHT22;10908;50.690;4.400;2023-10-09T12:00:01;21.10;67.70
21493;DHT22;10908;50.690;4.400;2023-10-09T12:02:36;21.10;68.30
21493;DHT22;10908;50.690;4.400;2023-10-09T12:05:10;21.00;68.70
21493;DHT22;10908;50.690;4.400;2023-10-09T12:07:44;21.10;68.90
21493;DHT22;10908;50.690;4.400;2023-10-09T12:10:09;21.10;68.50
21493;DHT22;10908;50.690;4.400;2023-10-09T12:12:36;21.20;67.90
21493;DHT22;10908;50.690;4.400;2023-10-09T12:15:02;21.30;67.90
21493;DHT22;10908;50.690;4.400;2023-10-09T12:17:30;21.30;67.30
21493;DHT22;10908;50.690;4.400;2023-10-09T12:19:56;21.40;66.90
21493;DHT22;10908;50.690;4.400;2023-10-09T12:22:22;21.30;67.30
21493;DHT22;10908;50.690;4.400;2023-10-09T12:24:52;21.30;66.80
21493;DHT22;10908;50.690;4.400;2023-10-09T12:27:18;21.40;66.60
21493;DHT22;10908;50.690;4.400;2023-10-09T12:29:46;21.40;65.20
21493;DHT22;10908;50.690;4.400;2023-10-09T12:32:12;21.50;64.50
21493;DHT22;10908;50.690;4.400;2023-10-09T12:34:38;21.30;65.40
21493;DHT22;10908;50.690;4.400;2023-10-09T12:37:05;21.40;65.30
21493;DHT22;10908;50.690;4.400;2023-10-09T12:39:31;21.30;64.60
21493;DHT22;10908;50.690;4.400;2023-10-09T12:42:05;21.30;65.20
21493;DHT22;10908;50.690;4.400;2023-10-09T12:44:34;21.30;65.10
21493;DHT22;10908;50.690;4.400;2023-10-09T12:47:07;21.40;64.60
21493;DHT22;10908;50.690;4.400;2023-10-09T12:49:32;21.40;65.00
21493;DHT22;10908;50.690;4.400;2023-10-09T12:51:58;21.50;65.70
21493;DHT22;10908;50.690;4.400;2023-10-09T12:54:27;21.50;64.50
21493;DHT22;10908;50.690;4.400;2023-10-09T12:56:56;21.40;64.70
21493;DHT22;10908;50.690;4.400;2023-10-09T12:59:23;21.40;64.60
21493;DHT22;10908;50.690;4.400;2023-10-09T13:01:50;21.40;64.50
21493;DHT22;10908;50.690;4.400;2023-10-09T13:04:23;21.50;65.30
21493;DHT22;10908;50.690;4.400;2023-10-09T13:06:49;21.40;64.50
21493;DHT22;10908;50.690;4.400;2023-10-09T13:09:19;21.40;64.10
21493;DHT22;10908;50.690;4.400;2023-10-09T13:12:00;21.40;66.10
21493;DHT22;10908;50.690;4.400;2023-10-09T13:14:27;21.40;65.30
21493;DHT22;10908;50.690;4.400;2023-10-09T13:16:53;21.40;65.30
21493;DHT22;10908;50.690;4.400;2023-10-09T13:19:19;21.40;65.00
21493;DHT22;10908;50.690;4.400;2023-10-09T13:21:45;21.40;64.40
21493;DHT22;10908;50.690;4.400;2023-10-09T13:24:11;21.40;64.70
21493;DHT22;10908;50.690;4.400;2023-10-09T13:26:45;21.50;64.50
21493;DHT22;10908;50.690;4.400;2023-10-09T13:29:12;21.40;64.10
21493;DHT22;10908;50.690;4.400;2023-10-09T13:31:38;21.30;63.80
21493;DHT22;10908;50.690;4.400;2023-10-09T13:34:05;21.30;64.30
21493;DHT22;10908;50.690;4.400;2023-10-09T13:36:41;21.30;63.20
21493;DHT22;10908;50.690;4.400;2023-10-09T13:39:10;21.30;64.10
21493;DHT22;10908;50.690;4.400;2023-10-09T13:41:59;21.10;64.40
21493;DHT22;10908;50.690;4.400;2023-10-09T13:44:27;21.20;64.20
21493;DHT22;10908;50.690;4.400;2023-10-09T13:46:57;21.20;64.50
21493;DHT22;10908;50.690;4.400;2023-10-09T13:49:24;21.20;65.20
21493;DHT22;10908;50.690;4.400;2023-10-09T13:51:58;21.20;65.60
21493;DHT22;10908;50.690;4.400;2023-10-09T13:54:26;21.10;65.80
21493;DHT22;10908;50.690;4.400;2023-10-09T13:56:57;21.30;65.90
21493;DHT22;10908;50.690;4.400;2023-10-09T13:59:23;21.30;66.10
21493;DHT22;10908;50.690;4.400;2023-10-09T14:01:53;21.40;66.60
21493;DHT22;10908;50.690;4.400;2023-10-09T14:04:25;21.40;66.40
21493;DHT22;10908;50.690;4.400;2023-10-09T14:06:53;21.50;66.20
21493;DHT22;10908;50.690;4.400;2023-10-09T14:09:23;21.50;66.40
21493;DHT22;10908;50.690;4.400;2023-10-09T14:12:15;21.40;66.40
21493;DHT22;10908;50.690;4.400;2023-10-09T14:14:45;21.40;66.70
21493;DHT22;10908;50.690;4.400;2023-10-09T14:17:14;21.40;67.20
21493;DHT22;10908;50.690;4.400;2023-10-09T14:19:43;21.40;67.50
21493;DHT22;10908;50.690;4.400;2023-10-09T14:22:25;21.40;67.70
21493;DHT22;10908;50.690;4.400;2023-10-09T14:24:55;21.30;67.80
21493;DHT22;10908;50.690;4.400;2023-10-09T14:27:22;21.30;68.00
21493;DHT22;10908;50.690;4.400;2023-10-09T14:29:52;21.30;68.00
21493;DHT22;10908;50.690;4.400;2023-10-09T14:32:21;21.20;68.50
21493;DHT22;10908;50.690;4.400;2023-10-09T14:34:54;21.10;68.30
21493;DHT22;10908;50.690;4.400;2023-10-09T14:37:20;21.10;68.50
21493;DHT22;10908;50.690;4.400;2023-10-09T14:39:47;21.00;68.10
21493;DHT22;10908;50.690;4.400;2023-10-09T14:42:16;21.00;68.10
21493;DHT22;10908;50.690;4.400;2023-10-09T14:44:45;21.00;68.60
21493;DHT22;10908;50.690;4.400;2023-10-09T14:47:11;21.00;68.50
21493;DHT22;10908;50.690;4.400;2023-10-09T14:49:37;21.00;68.40
21493;DHT22;10908;50.690;4.400;2023-10-09T14:52:09;20.90;67.80
21493;DHT22;10908;50.690;4.400;2023-10-09T14:54:36;20.90;68.20
21493;DHT22;10908;50.690;4.400;2023-10-09T14:57:02;20.90;68.30
21493;DHT22;10908;50.690;4.400;2023-10-09T14:59:32;20.90;68.50
21493;DHT22;10908;50.690;4.400;2023-10-09T15:01:58;21.00;68.90
21493;DHT22;10908;50.690;4.400;2023-10-09T15:04:24;21.00;69.20
21493;DHT22;10908;50.690;4.400;2023-10-09T15:06:51;21.00;69.40
21493;DHT22;10908;50.690;4.400;2023-10-09T15:09:17;21.10;69.30
21493;DHT22;10908;50.690;4.400;2023-10-09T15:11:54;21.10;69.60
21493;DHT22;10908;50.690;4.400;2023-10-09T15:14:20;21.00;69.20
21493;DHT22;10908;50.690;4.400;2023-10-09T15:16:47;21.00;69.40
21493;DHT22;10908;50.690;4.400;2023-10-09T15:19:13;20.90;69.60
21493;DHT22;10908;50.690;4.400;2023-10-09T15:21:39;20.90;69.80
21493;DHT22;10908;50.690;4.400;2023-10-09T15:24:16;20.90;69.50
21493;DHT22;10908;50.690;4.400;2023-10-09T15:26:48;20.90;69.80
21493;DHT22;10908;50.690;4.400;2023-10-09T15:29:24;20.90;69.80
21493;DHT22;10908;50.690;4.400;2023-10-09T15:31:58;20.80;70.20
21493;DHT22;10908;50.690;4.400;2023-10-09T15:34:36;20.80;70.10
21493;DHT22;10908;50.690;4.400;2023-10-09T15:37:01;20.80;70.50
21493;DHT22;10908;50.690;4.400;2023-10-09T15:39:29;20.80;70.50
21493;DHT22;10908;50.690;4.400;2023-10-09T15:54:10;20.70;71.00
21493;DHT22;10908;50.690;4.400;2023-10-09T15:56:37;20.70;71.30
21493;DHT22;10908;50.690;4.400;2023-10-09T15:59:07;20.70;71.50
21493;DHT22;10908;50.690;4.400;2023-10-09T16:01:33;20.60;71.50
21493;DHT22;10908;50.690;4.400;2023-10-09T16:04:01;20.50;71.60
21493;DHT22;10908;50.690;4.400;2023-10-09T16:06:26;20.50;71.90
21493;DHT22;10908;50.690;4.400;2023-10-09T16:08:56;20.40;72.20
21493;DHT22;10908;50.690;4.400;2023-10-09T16:11:22;20.30;72.40
21493;DHT22;10908;50.690;4.400;2023-10-09T16:13:49;20.20;72.70
21493;DHT22;10908;50.690;4.400;2023-10-09T16:16:24;20.10;72.90
21493;DHT22;10908;50.690;4.400;2023-10-09T16:18:50;19.90;73.30
21493;DHT22;10908;50.690;4.400;2023-10-09T16:21:17;19.90;73.60
21493;DHT22;10908;50.690;4.400;2023-10-09T16:23:42;19.90;73.50
21493;DHT22;10908;50.690;4.400;2023-10-09T16:26:08;19.80;74.00
21493;DHT22;10908;50.690;4.400;2023-10-09T16:28:34;19.70;74.80
21493;DHT22;10908;50.690;4.400;2023-10-09T16:31:00;19.60;75.80
21493;DHT22;10908;50.690;4.400;2023-10-09T16:33:26;19.50;76.10
21493;DHT22;10908;50.690;4.400;2023-10-09T16:35:52;19.40;76.40
21493;DHT22;10908;50.690;4.400;2023-10-09T16:38:20;19.40;76.70
21493;DHT22;10908;50.690;4.400;2023-10-09T16:40:55;19.20;77.00